• Join FlightAware (Why Join?)
  • Login
  • US Flag 
10:00AM EST


 

Airport Tracker/Info


-or-


 

Live Flight TrackerFlight Track Log ✈ UPS1214 ✈ 06-Jul-2013 ✈ KSDF - KBWI

Flight Track Log - Related Links

Times and Time Zones

All times are in EDT time to prevent confusion due to time zone crossing. See the UPS1214 flight status page for this flight to view local times or setup timezone preferences in your user account.

Time Position Orientation Groundspeed Altitude Reporting Facility
EDT Latitude Longitude Course Direction KTS MPH feet Rate Location/Type
05:16AM 38.1650 -85.7390 295° West 32 37  Level FlightAware
05:16AM 38.1660 -85.7390 360° North 34 39 120 Level FlightAware
05:17AM 38.1690 -85.7400 345° North 17 20 120 Level FlightAware
05:17AM 38.1720 -85.7410 345° North 19 22 120 Level FlightAware
05:18AM 38.1750 -85.7420 345° North 23 26 120 Level FlightAware
05:18AM 38.1770 -85.7430 339° North 21 24 180 Level FlightAware
05:18AM 38.1800 -85.7440 345° North 16 18 180 Level FlightAware
05:19AM 38.1800 -85.7430 90° East 30 35 180 Level FlightAware
05:19AM 38.1810 -85.7410 58° Northeast 19 22 240 Level FlightAware
05:20AM 38.1840 -85.7350 58° Northeast 16 18 300 Level FlightAware
05:21AM 38.1850 -85.7340 38° Northeast 16 18 420 Level FlightAware
05:21AM 38.1860 -85.7340 360° North 34 39 480 Level FlightAware
05:21AM 38.1870 -85.7330 38° Northeast 30 35 540 Level FlightAware
05:21AM 38.1870 -85.7320 90° East 33 38 660 Level FlightAware
05:22AM 38.1830 -85.7300 159° South 84 97 900 Level FlightAware
05:22AM 38.1670 -85.7240 164° South 163 188 900 2,280 Climbing FlightAware
05:23AM 38.1470 -85.7170 165° South 175 201 2,100 2,100 Climbing FlightAware
05:23AM 38.1240 -85.7080 163° South 218 251 2,800 2,280 Climbing FlightAware
05:24AM 38.0950 -85.6970 163° South 238 274 4,200 2,700 Climbing FlightAware
05:24AM 38.0820 -85.6870 149° Southeast 258 297 4,700 2,520 Climbing FlightAware
05:24AM 38.0730 -85.6710 126° Southeast 273 314 5,300 3,240 Climbing FlightAware
05:24AM 38.0700 -85.6560 104° East 277 319 5,900 3,780 Climbing FlightAware
05:25AM 38.0660 -85.6230 99° East 280 322 7,200 3,420 Climbing FlightAware
05:25AM 38.0620 -85.5830 97° East 288 331 8,500 3,120 Climbing FlightAware
05:26AM 38.0550 -85.5090 97° East 305 351 10,700 2,520 Climbing FlightAware
05:26AM 38.0480 -85.4190 96° East 365 420 12,200 2,820 Climbing FlightAware
05:27AM 38.0410 -85.3270 95° East 383 441 14,900 3,660 Climbing FlightAware
05:28AM 38.0350 -85.2460 95° East 396 456 17,000 3,480 Climbing FlightAware
05:29AM 38.0270 -85.1430 96° East 412 474 19,600 3,180 Climbing FlightAware
05:29AM 38.0380 -85.0390 82° East 443 510 21,600 2,700 Climbing FlightAware
05:30AM 38.0610 -84.9310 75° East 460 529 23,400 2,460 Climbing FlightAware
05:31AM 38.0860 -84.8150 75° East 475 547 25,200 2,460 Climbing FlightAware
05:31AM 38.1090 -84.7100 74° East 483 556 26,800 2,220 Climbing FlightAware
05:32AM 38.1340 -84.5970 74° East 498 573 28,200 1,380 Climbing FlightAware
05:33AM 38.1630 -84.4660 74° East 501 577 29,000 480 Climbing FlightAware
05:34AM 38.1890 -84.3520 74° East 501 577 29,000 3,300 Level FlightAware
05:34AM 38.2236 -84.1823 75° East 492 566 34,200 4,020 Climbing FlightAware ADS-B
05:35AM 38.2490 -84.0633 75° East 495 570 35,000 600 Climbing FlightAware ADS-B
05:36AM 38.2670 -83.9770 75° East 494 568 35,000  Level FlightAware
05:36AM 38.2900 -83.8710 75° East 493 567 35,000  Level FlightAware
05:37AM 38.3130 -83.7600 75° East 491 565 35,000  Level FlightAware
05:38AM 38.3340 -83.6610 75° East 489 563 35,000  Level FlightAware
05:38AM 38.3590 -83.5430 75° East 489 563 35,000  Level FlightAware
05:39AM 38.3770 -83.4580 75° East 489 563 35,000  Level FlightAware
05:40AM 38.4116 -83.2854 76° East 486 559 35,000  Level FlightAware ADS-B
05:40AM 38.4313 -83.1885 75° East 485 558 35,000  Level FlightAware ADS-B
05:41AM 38.4550 -83.0720 75° East 486 559 35,000  Level FlightAware
05:42AM 38.4800 -82.9480 76° East 487 560 35,000  Level FlightAware
05:43AM 38.5050 -82.8260 75° East 487 560 35,000  Level FlightAware
05:43AM 38.5270 -82.7140 76° East 486 559 35,000  Level FlightAware
05:44AM 38.5490 -82.6030 76° East 487 560 35,000  Level FlightAware
05:45AM 38.5740 -82.4770 76° East 487 560 35,000  Level FlightAware
05:45AM 38.5970 -82.3630 75° East 488 562 35,000  Level FlightAware
05:46AM 38.6190 -82.2510 76° East 489 563 35,000  Level FlightAware
05:47AM 38.6440 -82.1190 76° East 491 565 35,000  Level FlightAware
05:47AM 38.6660 -82.0090 76° East 492 566 35,000  Level FlightAware
05:48AM 38.6890 -81.8860 76° East 493 567 35,000  Level FlightAware
05:49AM 38.7110 -81.7730 76° East 492 566 35,000  Level FlightAware
05:49AM 38.7300 -81.6700 77° East 491 565 35,000  Level FlightAware
05:50AM 38.7510 -81.5590 76° East 490 564 35,000  Level FlightAware
05:51AM 38.7730 -81.4410 77° East 490 564 35,000  Level FlightAware
05:51AM 38.7910 -81.3450 76° East 490 564 35,000  Level FlightAware
05:52AM 38.8150 -81.2170 76° East 488 562 35,000  Level FlightAware
05:53AM 38.8370 -81.1000 76° East 486 559 35,000  Level FlightAware
05:54AM 38.8600 -80.9760 77° East 486 559 35,000  Level FlightAware
05:54AM 38.8810 -80.8610 77° East 485 558 35,000  Level FlightAware
05:55AM 38.8990 -80.7590 77° East 485 558 35,000  Level FlightAware
05:56AM 38.9220 -80.6350 77° East 484 557 35,000  Level FlightAware
05:56AM 38.9390 -80.5360 78° East 483 556 35,000  Level FlightAware
05:57AM 38.9600 -80.4210 77° East 483 556 35,000  Level FlightAware
05:58AM 38.9830 -80.2910 77° East 481 554 35,000  Level FlightAware
05:58AM 38.9990 -80.1990 77° East 481 554 35,000  Level FlightAware
05:59AM 39.0180 -80.0870 78° East 480 552 35,000  Level FlightAware
06:00AM 39.0390 -79.9700 77° East 481 554 35,000  Level FlightAware
06:00AM 39.0630 -79.8270 78° East 481 554 35,000  Level FlightAware
06:01AM 39.0830 -79.7110 77° East 482 555 35,000  Level FlightAware
06:02AM 39.1040 -79.5910 77° East 482 555 35,000  Level FlightAware
06:02AM 39.1220 -79.4840 78° East 482 555 35,000 -660 Level FlightAware
06:03AM 39.1430 -79.3590 78° East 480 552 34,100 -1,920 Descending FlightAware
06:04AM 39.1620 -79.2470 78° East 477 549 32,400 -2,820 Descending FlightAware
06:05AM 39.1830 -79.1170 78° East 497 572 30,100 -2,580 Descending FlightAware
06:05AM 39.2030 -78.9950 78° East 500 575 28,700 -2,340 Descending FlightAware
06:06AM 39.2200 -78.8920 78° East 494 568 27,100 -2,760 Descending FlightAware
06:07AM 39.2420 -78.7620 78° East 486 559 25,000 -2,820 Descending FlightAware
06:07AM 39.2610 -78.6380 79° East 477 549 23,000 -2,760 Descending FlightAware
06:08AM 39.2790 -78.5290 78° East 470 541 21,200 -2,760 Descending FlightAware
06:09AM 39.2990 -78.4040 78° East 460 529 19,100 -2,880 Descending FlightAware
06:09AM 39.3130 -78.3110 79° East 459 528 17,400 -2,940 Descending FlightAware
06:10AM 39.3320 -78.1940 78° East 451 519 15,300 -1,680 Descending FlightAware
06:11AM 39.3520 -78.0650 79° East 437 503 14,800 -360 Descending FlightAware
06:12AM 39.3670 -77.9720 78° East 440 506 14,800  Level FlightAware
06:12AM 39.3840 -77.8590 79° East 441 507 14,800  Level FlightAware
06:13AM 39.3950 -77.7770 80° East 440 506 14,800 -360 Level FlightAware
06:14AM 39.4090 -77.6700 80° East 436 502 14,300 -1,680 Descending FlightAware
06:15AM 39.4280 -77.5170 81° East 425 489 11,800 -1,080 Descending FlightAware
06:17AM 39.4730 -77.1600 81° East 416 479 10,800 -360 Descending FlightAware
06:18AM 39.4660 -77.0430 94° East 347 399 10,800 -240 Level FlightAware
06:19AM 39.4600 -76.9560 95° East 312 359 10,500 -960 Descending FlightAware
06:19AM 39.4540 -76.8820 96° East 311 358 9,500 -1,440 Descending FlightAware
06:20AM 39.4500 -76.8350 96° East 309 356 9,000 -1,200 Descending FlightAware
06:20AM 39.4480 -76.8070 95° East 306 352 8,700 -1,200 Descending FlightAware
06:20AM 39.4420 -76.7680 101° East 295 339 8,200 -1,440 Descending FlightAware
06:21AM 39.4250 -76.7450 134° Southeast 286 329 7,800 -1,500 Descending FlightAware
06:21AM 39.3910 -76.7160 147° Southeast 287 330 7,100 -1,440 Descending FlightAware
06:22AM 39.3580 -76.6870 146° Southeast 286 329 6,400 -1,440 Descending FlightAware
06:22AM 39.3320 -76.6640 146° Southeast 286 329 5,800 -1,380 Descending FlightAware
06:23AM 39.2970 -76.6340 146° Southeast 277 319 5,100 -1,080 Descending FlightAware
06:23AM 39.2690 -76.6100 146° Southeast 274 315 4,800 -360 Descending FlightAware
06:23AM 39.2430 -76.5880 147° Southeast 275 316 4,800 -360 Level FlightAware
06:24AM 39.2100 -76.5600 147° Southeast 261 300 4,500 -720 Descending FlightAware
06:24AM 39.1800 -76.5330 145° Southeast 256 295 4,100 -720 Descending FlightAware
06:25AM 39.1530 -76.5090 145° Southeast 235 270 3,800 -660 Descending FlightAware
06:25AM 39.1300 -76.4880 145° Southeast 222 255 3,500 -600 Descending FlightAware
06:26AM 39.1160 -76.4770 149° Southeast 221 254 3,400 -840 Descending FlightAware
06:26AM 39.1030 -76.4690 154° Southeast 196 226 3,100 -1,200 Descending FlightAware
06:26AM 39.0940 -76.4710 190° South 186 214 2,900 -1,440 Descending FlightAware
06:26AM 39.0850 -76.4790 215° Southwest 181 208 2,500 -840 Descending FlightAware
06:27AM 39.0630 -76.5080 226° Southwest 175 201 2,100 -360 Descending FlightAware
06:28AM 39.0667 -76.5667 226° Southwest 166 191 1,900 -360 Descending Potomac TRACON
06:29AM 39.1000 -76.6167 311° West 172 198 1,500 -660 Descending Potomac TRACON
06:30AM 39.1500 -76.6500 333° Northwest 138 159 600 -840 Descending Potomac TRACON
06:32AM 39.1667 -76.6667 277° West  Level FlightAware Approximate
06:39AM 39.1754 -76.6683 277° West  Level Estimated
06:40AM 39.1754 -76.6683 277° West  Level Estimated